Time;durP1;ratioP1;P1;durP2;ratioP2;P2;SDS_P1;SDS_P2;PMS_P1;PMS_P2;Temp;Humidity;BMP_temperature;BMP_pressure;BME280_temperature;BME280_humidity;BME280_pressure;Samples;Min_cycle;Max_cycle;Signal;HPM_P1;HPM_P2
2023/08/06 00:00:39;;;;;;;11.10;10.70;;;16.20;99.90;;;;;;5070506;28;20230;-65
2023/08/06 00:03:06;;;;;;;11.17;10.77;;;16.20;99.90;;;;;;5069613;28;20684;-64
2023/08/06 00:05:33;;;;;;;11.63;11.23;;;16.20;99.90;;;;;;5072213;28;20217;-67
2023/08/06 00:08:00;;;;;;;12.27;11.77;;;16.20;99.90;;;;;;5071577;28;20203;-67
2023/08/06 00:10:28;;;;;;;11.83;11.43;;;16.20;99.90;;;;;;5069376;28;20245;-67
2023/08/06 00:12:55;;;;;;;12.40;12.00;;;16.20;99.90;;;;;;5070834;28;20203;-67
2023/08/06 00:15:22;;;;;;;11.60;11.20;;;16.30;99.90;;;;;;5071879;28;20214;-65
2023/08/06 00:17:49;;;;;;;11.30;10.90;;;16.30;99.90;;;;;;5073098;28;20275;-66
2023/08/06 00:20:16;;;;;;;13.02;12.63;;;16.30;99.90;;;;;;5068704;28;20323;-63
2023/08/06 00:22:43;;;;;;;11.40;11.00;;;16.20;99.90;;;;;;5070985;28;20278;-65
2023/08/06 00:25:10;;;;;;;12.20;11.80;;;16.20;99.90;;;;;;5070134;28;20715;-65
2023/08/06 00:27:38;;;;;;;11.77;11.30;;;16.20;99.90;;;;;;5070799;28;20293;-65
2023/08/06 00:30:06;;;;;;;11.60;11.20;;;16.20;99.90;;;;;;5071963;28;20760;-65
2023/08/06 00:32:33;;;;;;;12.23;11.82;;;16.30;99.90;;;;;;5072989;28;20203;-66
2023/08/06 00:34:59;;;;;;;11.43;11.03;;;16.30;99.90;;;;;;5070490;28;20309;-66
2023/08/06 00:37:26;;;;;;;12.18;11.77;;;16.40;99.90;;;;;;5070252;28;20614;-66
2023/08/06 00:39:53;;;;;;;12.23;11.83;;;16.40;99.90;;;;;;5069271;28;20223;-66
2023/08/06 00:42:20;;;;;;;12.30;11.90;;;16.60;99.90;;;;;;5069754;28;20223;-64
2023/08/06 00:44:49;;;;;;;12.73;12.32;;;16.50;99.90;;;;;;5069927;28;20660;-66
2023/08/06 00:47:16;;;;;;;12.70;12.30;;;16.50;99.90;;;;;;5070719;28;20203;-66
2023/08/06 00:49:43;;;;;;;13.53;13.03;;;16.50;99.90;;;;;;5069617;28;20219;-65
2023/08/06 00:52:10;;;;;;;12.97;12.47;;;16.50;99.90;;;;;;5072091;28;20203;-65
2023/08/06 00:54:38;;;;;;;13.00;12.50;;;16.50;99.90;;;;;;5068865;28;20209;-65
2023/08/06 00:57:07;;;;;;;13.52;13.07;;;16.60;99.90;;;;;;5069302;28;20211;-66
2023/08/06 00:59:35;;;;;;;13.48;13.02;;;16.70;99.90;;;;;;5068584;28;20231;-63
2023/08/06 01:02:03;;;;;;;13.80;13.33;;;16.70;99.90;;;;;;5069969;28;20233;-66
2023/08/06 01:04:30;;;;;;;13.33;12.83;;;16.70;99.90;;;;;;5071816;28;20214;-65
2023/08/06 01:07:10;;;;;;;13.18;12.68;;;16.70;99.90;;;;;;5070851;28;20294;-64
2023/08/06 01:09:51;;;;;;;12.97;12.43;;;16.80;99.90;;;;;;5068615;28;20239;-65
2023/08/06 01:12:27;;;;;;;14.00;13.50;;;16.70;99.90;;;;;;5069686;28;20736;-64
2023/08/06 01:15:02;;;;;;;13.95;13.45;;;16.70;99.90;;;;;;5069999;28;20209;-65
2023/08/06 01:17:31;;;;;;;13.93;13.43;;;16.70;99.90;;;;;;5069859;28;20198;-65
2023/08/06 01:19:58;;;;;;;13.63;13.13;;;16.70;99.90;;;;;;5068862;28;20223;-67
2023/08/06 01:22:26;;;;;;;13.13;12.68;;;16.80;99.90;;;;;;5068836;28;20796;-65
2023/08/06 01:24:55;;;;;;;13.63;13.13;;;16.70;99.90;;;;;;5070154;28;20210;-67
2023/08/06 01:27:29;;;;;;;13.87;13.37;;;16.70;99.90;;;;;;5070521;28;20230;-63
2023/08/06 01:30:06;;;;;;;13.93;13.43;;;16.70;99.90;;;;;;5069905;28;20234;-66
2023/08/06 01:32:36;;;;;;;13.93;13.43;;;16.80;99.90;;;;;;5070545;28;20199;-67
2023/08/06 01:35:05;;;;;;;13.03;12.57;;;16.80;99.90;;;;;;5070858;28;20209;-66
2023/08/06 01:37:33;;;;;;;13.68;13.18;;;16.80;99.90;;;;;;5069844;28;20199;-65
2023/08/06 01:40:00;;;;;;;13.63;13.13;;;16.80;99.90;;;;;;5069707;28;20724;-66
2023/08/06 01:42:27;;;;;;;14.02;13.52;;;16.80;99.90;;;;;;5071952;28;20219;-66
2023/08/06 01:44:54;;;;;;;13.80;13.32;;;16.80;99.90;;;;;;5063512;28;20858;-64
2023/08/06 01:47:21;;;;;;;13.03;12.63;;;16.90;99.90;;;;;;5053493;28;20212;-65
2023/08/06 01:49:47;;;;;;;13.90;13.40;;;17.00;99.90;;;;;;5064787;28;20223;-66
2023/08/06 01:52:14;;;;;;;13.55;13.05;;;16.90;99.90;;;;;;5074815;28;20205;-64
2023/08/06 01:54:42;;;;;;;13.43;12.97;;;17.00;99.90;;;;;;5073975;28;20215;-65
2023/08/06 01:57:09;;;;;;;13.70;13.20;;;17.00;99.90;;;;;;5071922;28;20211;-66
2023/08/06 01:59:36;;;;;;;13.33;12.90;;;17.00;99.90;;;;;;5072464;28;20255;-66
2023/08/06 02:02:03;;;;;;;12.27;11.87;;;16.90;99.90;;;;;;5067543;28;20216;-65
2023/08/06 02:04:30;;;;;;;13.10;12.70;;;17.00;99.90;;;;;;5053052;28;20670;-66
2023/08/06 02:06:57;;;;;;;12.40;12.00;;;17.10;99.90;;;;;;5053739;28;20208;-65
2023/08/06 02:09:23;;;;;;;12.23;11.83;;;17.00;99.90;;;;;;5052446;28;21249;-67
2023/08/06 02:11:52;;;;;;;12.53;12.10;;;17.00;99.90;;;;;;5082663;22;20218;-66
2023/08/06 02:14:18;;;;;;;12.10;11.70;;;16.90;99.90;;;;;;5072665;28;20575;-66
2023/08/06 02:16:45;;;;;;;13.50;13.00;;;16.90;99.90;;;;;;5074262;28;20203;-66
2023/08/06 02:19:12;;;;;;;14.47;13.97;;;16.90;99.90;;;;;;5062460;28;20204;-65
2023/08/06 02:21:39;;;;;;;13.48;13.02;;;16.90;99.90;;;;;;5056241;28;20228;-65
2023/08/06 02:24:06;;;;;;;13.73;13.23;;;16.90;99.90;;;;;;5055714;28;20224;-67
2023/08/06 02:26:32;;;;;;;13.17;12.67;;;16.90;99.90;;;;;;5057023;28;20214;-67
2023/08/06 02:29:01;;;;;;;13.47;13.00;;;16.90;99.90;;;;;;5054786;28;20208;-66
2023/08/06 02:31:27;;;;;;;13.43;12.93;;;16.90;99.90;;;;;;5053905;28;20234;-66
2023/08/06 02:33:55;;;;;;;13.00;12.60;;;17.00;99.90;;;;;;5053918;28;20207;-65
2023/08/06 02:36:21;;;;;;;12.33;11.93;;;16.90;99.90;;;;;;5053940;28;20216;-67
2023/08/06 02:38:48;;;;;;;12.93;12.53;;;16.80;99.90;;;;;;5052155;28;20211;-67
2023/08/06 02:41:15;;;;;;;13.10;12.60;;;16.80;99.90;;;;;;5052121;28;20220;-66
2023/08/06 02:43:42;;;;;;;12.27;11.87;;;16.60;99.90;;;;;;5052754;28;20251;-66
2023/08/06 02:46:10;;;;;;;13.20;12.70;;;16.60;99.90;;;;;;5052151;28;20216;-66
2023/08/06 02:48:37;;;;;;;13.20;12.70;;;16.60;99.90;;;;;;5058818;28;20200;-66
2023/08/06 02:51:04;;;;;;;13.52;13.02;;;16.60;99.90;;;;;;5056842;28;20238;-67
2023/08/06 02:53:31;;;;;;;14.10;13.60;;;16.60;99.90;;;;;;5053358;28;20204;-65
2023/08/06 02:55:58;;;;;;;13.00;12.53;;;16.60;99.90;;;;;;5057099;28;20230;-66
2023/08/06 02:58:25;;;;;;;13.07;12.63;;;16.60;99.90;;;;;;5053053;28;20214;-67
2023/08/06 03:01:02;;;;;;;15.38;14.77;;;16.60;99.90;;;;;;5050929;28;20587;-69
2023/08/06 03:03:30;;;;;;;14.37;13.77;;;16.70;99.90;;;;;;5052578;28;20228;-66
2023/08/06 03:05:57;;;;;;;12.53;12.13;;;16.50;99.90;;;;;;5053027;28;20203;-66
2023/08/06 03:08:24;;;;;;;13.97;13.47;;;16.60;99.90;;;;;;5053042;28;20266;-65
2023/08/06 03:10:51;;;;;;;13.13;12.73;;;16.50;99.90;;;;;;5051526;28;20250;-66
2023/08/06 03:13:19;;;;;;;13.00;12.57;;;16.40;99.90;;;;;;5052245;28;20895;-66
2023/08/06 03:15:53;;;;;;;12.67;12.20;;;16.40;99.90;;;;;;5051915;28;20562;-66
2023/08/06 03:18:20;;;;;;;12.30;11.90;;;16.30;99.90;;;;;;5052386;28;20223;-68
2023/08/06 03:20:48;;;;;;;12.63;12.23;;;16.30;99.90;;;;;;5051501;28;20220;-66
2023/08/06 03:23:15;;;;;;;13.53;13.03;;;16.30;99.90;;;;;;5071573;28;20234;-67
2023/08/06 03:25:42;;;;;;;13.00;12.57;;;16.40;99.90;;;;;;5072138;28;20234;-67
2023/08/06 03:28:09;;;;;;;12.77;12.30;;;16.30;99.90;;;;;;5070486;28;20247;-68
2023/08/06 03:30:35;;;;;;;14.30;13.80;;;16.20;99.90;;;;;;5070839;28;20333;-68
2023/08/06 03:33:02;;;;;;;14.93;14.43;;;16.20;99.90;;;;;;5071872;28;20195;-66
2023/08/06 03:35:29;;;;;;;13.60;13.10;;;16.30;99.90;;;;;;5071545;28;20275;-67
2023/08/06 03:37:57;;;;;;;14.47;13.97;;;16.40;99.90;;;;;;5071588;28;20204;-67
2023/08/06 03:40:24;;;;;;;15.07;14.52;;;16.40;99.90;;;;;;5070618;28;20230;-66
2023/08/06 03:42:51;;;;;;;15.93;15.33;;;16.30;99.90;;;;;;5071505;28;20227;-66
2023/08/06 03:45:18;;;;;;;14.10;13.60;;;16.30;99.90;;;;;;5072078;28;20218;-67
2023/08/06 03:47:44;;;;;;;15.27;14.77;;;16.30;99.90;;;;;;5071866;28;20199;-65
2023/08/06 03:50:11;;;;;;;16.83;16.23;;;16.30;99.90;;;;;;5070280;28;20233;-66
2023/08/06 03:52:38;;;;;;;15.53;14.93;;;16.30;99.90;;;;;;5070804;28;20201;-66
2023/08/06 03:55:07;;;;;;;15.00;14.50;;;16.20;99.90;;;;;;5070766;28;20203;-66
2023/08/06 03:57:34;;;;;;;14.90;14.40;;;16.20;99.90;;;;;;5074081;28;20217;-67
2023/08/06 04:00:00;;;;;;;14.77;14.27;;;16.20;99.90;;;;;;5074023;28;20227;-66
2023/08/06 04:02:27;;;;;;;14.10;13.60;;;16.30;99.90;;;;;;5075268;28;20207;-67
2023/08/06 04:04:54;;;;;;;15.47;14.87;;;16.30;99.90;;;;;;5076011;28;20211;-66
2023/08/06 04:07:21;;;;;;;15.70;15.20;;;16.20;99.90;;;;;;5078864;28;20325;-66
2023/08/06 04:09:56;;;;;;;15.53;15.03;;;16.30;99.90;;;;;;5076214;28;20207;-66
2023/08/06 04:12:24;;;;;;;18.10;17.50;;;16.20;99.90;;;;;;5077181;28;20230;-66
2023/08/06 04:14:51;;;;;;;19.97;19.27;;;16.20;99.90;;;;;;5075465;28;20274;-66
2023/08/06 04:17:20;;;;;;;18.50;17.90;;;16.30;99.90;;;;;;5076353;28;20199;-67
2023/08/06 04:19:48;;;;;;;18.70;18.08;;;16.30;99.90;;;;;;5075226;28;20230;-65
2023/08/06 04:22:15;;;;;;;17.65;17.02;;;16.30;99.90;;;;;;5074705;28;20214;-66
2023/08/06 04:24:42;;;;;;;17.03;16.43;;;16.30;99.90;;;;;;5071065;28;20685;-68
2023/08/06 04:27:09;;;;;;;17.80;17.20;;;16.40;99.90;;;;;;5070267;28;20210;-66
2023/08/06 04:29:38;;;;;;;20.07;19.37;;;16.30;99.90;;;;;;5069745;28;20950;-66
2023/08/06 04:32:08;;;;;;;20.13;19.43;;;16.30;99.90;;;;;;5074598;28;20303;-66
2023/08/06 04:34:34;;;;;;;21.52;20.80;;;16.30;99.90;;;;;;5070851;28;20206;-67
2023/08/06 04:37:02;;;;;;;23.13;22.33;;;16.30;99.90;;;;;;5071110;28;20204;-65
2023/08/06 04:39:29;;;;;;;19.23;18.58;;;16.30;99.90;;;;;;5072811;28;20203;-68
2023/08/06 04:41:56;;;;;;;25.20;24.30;;;16.20;99.90;;;;;;5070749;28;20241;-66
2023/08/06 04:44:23;;;;;;;23.80;23.00;;;16.20;99.90;;;;;;5070624;28;20219;-65
2023/08/06 04:46:51;;;;;;;24.50;23.63;;;16.20;99.90;;;;;;5071092;28;20246;-65
2023/08/06 04:49:18;;;;;;;24.17;23.37;;;16.20;99.90;;;;;;5070470;28;20227;-68
2023/08/06 04:51:45;;;;;;;25.03;24.17;;;16.20;99.90;;;;;;5071074;28;20227;-66
2023/08/06 04:54:12;;;;;;;26.17;25.27;;;16.20;99.90;;;;;;5071163;28;20321;-65
2023/08/06 04:56:39;;;;;;;24.10;23.27;;;16.20;99.90;;;;;;5071914;28;20211;-67
2023/08/06 04:59:05;;;;;;;24.02;23.23;;;16.20;99.90;;;;;;5071999;28;20210;-69
2023/08/06 05:01:32;;;;;;;21.17;20.43;;;16.20;99.90;;;;;;5080521;28;20286;-66
2023/08/06 05:04:00;;;;;;;19.60;18.90;;;16.30;99.90;;;;;;5077718;28;20229;-65
2023/08/06 05:06:27;;;;;;;18.73;18.07;;;16.40;99.90;;;;;;5073119;28;20680;-66
2023/08/06 05:08:54;;;;;;;18.40;17.80;;;16.20;99.90;;;;;;5072980;28;20199;-66
2023/08/06 05:11:21;;;;;;;28.43;27.30;;;16.10;99.90;;;;;;5073299;28;20763;-66
2023/08/06 05:13:48;;;;;;;18.93;18.30;;;16.10;99.90;;;;;;5076071;28;20203;-64
2023/08/06 05:16:14;;;;;;;17.77;17.17;;;16.00;99.90;;;;;;5074596;28;20224;-66
2023/08/06 05:18:41;;;;;;;18.63;18.03;;;16.10;99.90;;;;;;5074230;28;20297;-66
2023/08/06 05:21:09;;;;;;;16.27;15.70;;;16.10;99.90;;;;;;5074495;28;20227;-65
2023/08/06 05:23:37;;;;;;;18.93;18.23;;;16.10;99.90;;;;;;5073118;28;20701;-66
2023/08/06 05:26:04;;;;;;;17.47;16.87;;;16.00;99.90;;;;;;5070426;28;20210;-68
2023/08/06 05:28:31;;;;;;;17.40;16.80;;;16.00;99.90;;;;;;5071848;28;20211;-65
2023/08/06 05:30:58;;;;;;;18.50;17.90;;;16.00;99.90;;;;;;5069828;28;20223;-66
2023/08/06 05:33:25;;;;;;;16.07;15.47;;;16.00;99.90;;;;;;5070759;28;20210;-68
2023/08/06 05:35:52;;;;;;;13.77;13.27;;;15.90;99.90;;;;;;5071143;28;20205;-66
2023/08/06 05:38:20;;;;;;;14.00;13.50;;;15.90;99.90;;;;;;5058001;28;20208;-67
2023/08/06 05:40:47;;;;;;;15.33;14.83;;;15.90;99.90;;;;;;5050282;28;20295;-66
2023/08/06 05:43:14;;;;;;;16.27;15.67;;;15.90;99.90;;;;;;5050440;28;20277;-65
2023/08/06 05:45:44;;;;;;;12.47;12.07;;;15.90;99.90;;;;;;5050421;28;20207;-66
2023/08/06 05:48:11;;;;;;;13.10;12.70;;;15.90;99.90;;;;;;5050089;28;20302;-66
2023/08/06 05:50:38;;;;;;;13.73;13.27;;;15.90;99.90;;;;;;5048814;28;20228;-64
2023/08/06 05:53:05;;;;;;;13.20;12.80;;;15.90;99.90;;;;;;5049496;28;20210;-66
2023/08/06 05:55:33;;;;;;;12.83;12.43;;;15.90;99.90;;;;;;5048387;28;20682;-67
2023/08/06 05:58:00;;;;;;;12.80;12.40;;;15.90;99.90;;;;;;5050602;28;20212;-66
2023/08/06 06:00:27;;;;;;;13.47;13.03;;;15.90;99.90;;;;;;5049958;28;20247;-67
2023/08/06 06:02:54;;;;;;;12.45;12.05;;;15.90;99.90;;;;;;5050526;28;20222;-66
2023/08/06 06:05:20;;;;;;;15.07;14.57;;;15.90;99.90;;;;;;5051548;28;20292;-65
2023/08/06 06:07:47;;;;;;;13.57;13.13;;;15.90;99.90;;;;;;5051314;28;20208;-67
2023/08/06 06:10:14;;;;;;;13.10;12.70;;;15.90;99.90;;;;;;5050250;28;20235;-66
2023/08/06 06:12:42;;;;;;;12.87;12.47;;;15.90;99.90;;;;;;5051766;28;20297;-68
2023/08/06 06:15:10;;;;;;;13.48;13.05;;;15.90;99.90;;;;;;5061358;28;20271;-66
2023/08/06 06:17:37;;;;;;;12.93;12.53;;;15.90;99.90;;;;;;5064955;28;20227;-66
2023/08/06 06:20:05;;;;;;;17.67;17.03;;;15.90;99.90;;;;;;5073892;28;20224;-66
2023/08/06 06:22:31;;;;;;;14.40;13.90;;;15.90;99.90;;;;;;5069114;28;20246;-67
2023/08/06 06:24:58;;;;;;;12.73;12.33;;;15.90;99.90;;;;;;5068399;28;20226;-65
2023/08/06 06:27:25;;;;;;;14.40;13.90;;;15.90;99.90;;;;;;5068834;28;20214;-65
2023/08/06 06:29:54;;;;;;;15.53;15.03;;;15.90;99.90;;;;;;5069558;28;20300;-66
2023/08/06 06:32:21;;;;;;;14.70;14.20;;;15.90;99.90;;;;;;5074426;28;20298;-66
2023/08/06 06:34:48;;;;;;;16.63;16.05;;;16.10;99.90;;;;;;5074065;28;20295;-66
2023/08/06 06:37:15;;;;;;;16.60;16.00;;;16.00;99.90;;;;;;5074352;28;20203;-66
2023/08/06 06:39:42;;;;;;;25.57;24.57;;;16.00;99.90;;;;;;5071240;28;20211;-67
2023/08/06 06:42:08;;;;;;;14.43;13.93;;;16.00;99.90;;;;;;5071933;28;20574;-66
2023/08/06 06:44:35;;;;;;;13.23;12.83;;;15.90;99.90;;;;;;5071924;28;20227;-67
2023/08/06 06:47:04;;;;;;;13.45;12.95;;;15.90;99.90;;;;;;5072020;28;20203;-66
2023/08/06 06:49:31;;;;;;;12.43;12.03;;;15.90;99.90;;;;;;5071278;28;20203;-66
2023/08/06 06:51:57;;;;;;;12.98;12.57;;;15.90;99.90;;;;;;5071978;28;20223;-65
2023/08/06 06:54:24;;;;;;;17.47;16.87;;;15.90;99.90;;;;;;5072714;28;20229;-66
2023/08/06 06:56:51;;;;;;;15.17;14.67;;;15.90;99.90;;;;;;5072420;28;20203;-65
2023/08/06 06:59:18;;;;;;;17.93;17.33;;;15.90;99.90;;;;;;5072020;28;20210;-66
2023/08/06 07:01:45;;;;;;;14.30;13.80;;;15.80;99.90;;;;;;5072683;28;20702;-65
2023/08/06 07:04:13;;;;;;;13.90;13.40;;;15.70;99.90;;;;;;5072911;28;20245;-65
2023/08/06 07:06:39;;;;;;;13.13;12.73;;;15.80;99.90;;;;;;5072199;28;20210;-65
2023/08/06 07:09:06;;;;;;;14.30;13.80;;;15.80;99.90;;;;;;5072119;28;20209;-67
2023/08/06 07:11:33;;;;;;;15.20;14.70;;;15.70;99.90;;;;;;5072160;28;20322;-66
2023/08/06 07:14:00;;;;;;;15.37;14.87;;;15.80;99.90;;;;;;5072658;28;20202;-65
2023/08/06 07:16:28;;;;;;;14.70;14.20;;;15.80;99.90;;;;;;5072587;28;20207;-67
2023/08/06 07:18:55;;;;;;;14.47;13.97;;;15.80;99.90;;;;;;5073039;28;20206;-65
2023/08/06 07:21:23;;;;;;;14.67;14.17;;;15.80;99.90;;;;;;5065703;28;20220;-65
2023/08/06 07:23:50;;;;;;;28.40;27.30;;;15.90;99.90;;;;;;5061144;28;20627;-65
2023/08/06 07:26:17;;;;;;;15.37;14.87;;;15.90;99.90;;;;;;5060767;28;20204;-65
2023/08/06 07:28:44;;;;;;;15.90;15.40;;;16.00;99.90;;;;;;5062240;28;20202;-64
2023/08/06 07:31:11;;;;;;;14.13;13.63;;;15.90;99.90;;;;;;5061890;28;20261;-65
2023/08/06 07:33:38;;;;;;;13.57;13.13;;;16.10;99.90;;;;;;5062565;28;20188;-64
2023/08/06 07:36:13;;;;;;;14.53;14.03;;;15.90;99.90;;;;;;5070452;28;20196;-65
2023/08/06 07:38:41;;;;;;;16.60;16.03;;;16.00;99.90;;;;;;5051687;28;20814;-65
2023/08/06 07:41:09;;;;;;;15.17;14.67;;;16.00;99.90;;;;;;5050020;28;20227;-64
2023/08/06 07:43:36;;;;;;;14.55;14.05;;;16.00;99.90;;;;;;5051836;28;20204;-64
2023/08/06 07:46:03;;;;;;;14.83;14.33;;;15.90;99.90;;;;;;5052232;28;20203;-63
2023/08/06 07:48:30;;;;;;;14.90;14.40;;;15.90;99.90;;;;;;5051744;28;20215;-65
2023/08/06 07:50:57;;;;;;;17.00;16.40;;;16.00;99.90;;;;;;5050315;28;20223;-64
2023/08/06 07:53:26;;;;;;;20.13;19.43;;;15.90;99.90;;;;;;5049055;28;20210;-64
2023/08/06 07:55:55;;;;;;;15.33;14.83;;;15.90;99.90;;;;;;5045716;28;20673;-64
2023/08/06 07:58:22;;;;;;;17.23;16.63;;;15.90;99.90;;;;;;5046637;28;20883;-67
2023/08/06 08:00:49;;;;;;;198.60;186.73;;;15.90;99.90;;;;;;5067491;28;20744;-64
2023/08/06 08:03:17;;;;;;;15.00;14.50;;;15.90;99.90;;;;;;5055218;28;20214;-67
2023/08/06 08:05:45;;;;;;;19.10;18.43;;;15.90;99.90;;;;;;5051357;28;20224;-65
2023/08/06 08:08:12;;;;;;;15.93;15.40;;;15.90;99.90;;;;;;5056280;28;20211;-67
2023/08/06 08:10:39;;;;;;;13.30;12.90;;;15.90;99.90;;;;;;5068890;22;20282;-63
2023/08/06 08:13:07;;;;;;;13.20;12.80;;;16.10;99.90;;;;;;5065886;28;20766;-66
2023/08/06 08:15:36;;;;;;;62.70;59.17;;;15.90;99.90;;;;;;5070773;28;20199;-67
2023/08/06 08:18:02;;;;;;;12.83;12.37;;;15.90;99.90;;;;;;5071577;28;20239;-65
2023/08/06 08:20:31;;;;;;;12.20;11.80;;;15.90;99.90;;;;;;5070123;28;20205;-65
2023/08/06 08:23:00;;;;;;;11.87;11.47;;;15.90;99.90;;;;;;5061596;28;20214;-67
2023/08/06 08:25:27;;;;;;;24.97;23.93;;;15.90;99.90;;;;;;5049624;28;20303;-67
2023/08/06 08:27:54;;;;;;;12.17;11.77;;;15.90;99.90;;;;;;5049371;28;20222;-66
2023/08/06 08:30:24;;;;;;;11.83;11.43;;;15.90;99.90;;;;;;5053785;28;20272;-65
2023/08/06 08:32:51;;;;;;;13.97;13.47;;;15.90;99.90;;;;;;5049912;28;20682;-66
2023/08/06 08:35:18;;;;;;;11.90;11.50;;;15.90;99.90;;;;;;5049507;28;20210;-66
2023/08/06 08:37:45;;;;;;;13.50;13.03;;;15.90;99.90;;;;;;5049367;28;20227;-63
2023/08/06 08:40:12;;;;;;;43.43;41.43;;;15.90;99.90;;;;;;5048851;28;20219;-65
2023/08/06 08:42:39;;;;;;;13.20;12.70;;;15.80;99.90;;;;;;5047268;28;20506;-66
2023/08/06 08:45:12;;;;;;;12.43;12.03;;;15.80;99.90;;;;;;5048784;28;20220;-65
2023/08/06 08:47:41;;;;;;;48.90;46.50;;;15.80;99.90;;;;;;5047700;28;20200;-65
2023/08/06 08:50:10;;;;;;;27.53;26.40;;;15.80;99.90;;;;;;5048186;28;20298;-65
2023/08/06 08:52:39;;;;;;;11.47;11.07;;;15.80;99.90;;;;;;5043101;28;20220;-68
2023/08/06 08:55:07;;;;;;;12.07;11.57;;;15.90;99.90;;;;;;5049039;28;20730;-65
2023/08/06 08:57:34;;;;;;;11.87;11.47;;;15.90;99.90;;;;;;5039313;28;20210;-63
2023/08/06 09:00:01;;;;;;;11.73;11.33;;;15.90;99.90;;;;;;5035989;28;20214;-67
2023/08/06 09:02:31;;;;;;;11.03;10.63;;;15.90;99.90;;;;;;5037922;28;20301;-63
2023/08/06 09:05:02;;;;;;;13.23;12.77;;;15.90;99.90;;;;;;5036509;28;20588;-64
2023/08/06 09:07:34;;;;;;;11.70;11.30;;;16.00;99.90;;;;;;5031087;28;20238;-65
2023/08/06 09:10:04;;;;;;;30.00;28.73;;;16.00;99.90;;;;;;5030647;28;20211;-67
2023/08/06 09:12:31;;;;;;;14.47;13.97;;;16.10;99.90;;;;;;5034304;28;20240;-65
2023/08/06 09:14:58;;;;;;;12.57;12.17;;;16.00;99.90;;;;;;5041693;28;20235;-64
2023/08/06 09:17:25;;;;;;;12.07;11.67;;;16.00;99.90;;;;;;5040048;28;20215;-64
2023/08/06 09:19:52;;;;;;;11.50;11.10;;;16.00;99.90;;;;;;5035142;28;20189;-70
2023/08/06 09:22:20;;;;;;;19.30;18.60;;;15.90;99.90;;;;;;5031537;28;20315;-65
2023/08/06 09:24:47;;;;;;;13.40;12.93;;;15.90;99.90;;;;;;5032085;28;20319;-66
2023/08/06 09:27:15;;;;;;;16.93;16.33;;;15.90;99.90;;;;;;5039147;28;20211;-64
2023/08/06 09:29:44;;;;;;;10.67;10.30;;;15.90;99.90;;;;;;5040895;28;20246;-63
2023/08/06 09:32:11;;;;;;;20.47;19.70;;;15.90;99.90;;;;;;5039978;28;20803;-64
2023/08/06 09:34:40;;;;;;;10.23;9.93;;;15.80;99.90;;;;;;5034736;28;20232;-64
2023/08/06 09:37:09;;;;;;;26.43;25.37;;;15.80;99.90;;;;;;5030347;28;20208;-65
2023/08/06 09:39:38;;;;;;;12.07;11.67;;;15.90;99.90;;;;;;5029813;28;20218;-66
2023/08/06 09:42:05;;;;;;;10.97;10.57;;;15.80;99.90;;;;;;5039013;28;20255;-64
2023/08/06 09:44:33;;;;;;;10.23;9.93;;;15.80;99.90;;;;;;5050405;28;20538;-64
2023/08/06 09:47:02;;;;;;;10.13;9.80;;;15.80;99.90;;;;;;5050924;28;20208;-64
2023/08/06 09:49:41;;;;;;;12.33;11.93;;;15.90;99.90;;;;;;5050089;28;20210;-65
2023/08/06 09:52:12;;;;;;;10.17;9.87;;;15.90;99.90;;;;;;5050201;28;20231;-65
2023/08/06 09:54:41;;;;;;;11.53;11.13;;;16.00;99.90;;;;;;5044946;28;20205;-66
2023/08/06 09:57:08;;;;;;;10.73;10.40;;;16.00;99.90;;;;;;5042094;28;20299;-65
2023/08/06 09:59:36;;;;;;;12.07;11.67;;;15.90;99.90;;;;;;5049340;28;20295;-65
2023/08/06 10:02:07;;;;;;;11.27;10.87;;;16.00;99.90;;;;;;5050435;28;20316;-67
2023/08/06 10:04:35;;;;;;;11.47;11.07;;;16.00;99.90;;;;;;5052002;28;20723;-68
2023/08/06 10:07:02;;;;;;;11.23;10.83;;;16.10;99.90;;;;;;5052448;28;20230;-66
2023/08/06 10:09:29;;;;;;;12.37;11.97;;;16.10;99.90;;;;;;5052237;28;20208;-66
2023/08/06 10:11:58;;;;;;;11.17;10.77;;;16.20;99.90;;;;;;5053308;28;20326;-66
2023/08/06 10:14:30;;;;;;;11.67;11.27;;;16.20;99.90;;;;;;5055055;28;20204;-63
2023/08/06 10:16:58;;;;;;;14.80;14.30;;;16.40;99.90;;;;;;5057715;28;20208;-64
2023/08/06 10:19:26;;;;;;;11.77;11.37;;;16.30;99.90;;;;;;5045180;28;20295;-65
2023/08/06 10:22:10;;;;;;;12.30;11.90;;;16.20;99.90;;;;;;5037740;28;20666;-64
2023/08/06 10:24:50;;;;;;;13.50;13.07;;;16.20;99.90;;;;;;5042280;28;20311;-64
2023/08/06 10:27:24;;;;;;;11.87;11.47;;;16.20;99.90;;;;;;5039030;28;20576;-64
2023/08/06 10:29:51;;;;;;;12.10;11.70;;;16.10;99.90;;;;;;5038409;28;20224;-66
2023/08/06 10:32:19;;;;;;;12.87;12.47;;;16.10;99.90;;;;;;5037493;28;20228;-65
2023/08/06 10:34:56;;;;;;;12.27;11.87;;;16.10;99.90;;;;;;5036427;28;20315;-67
2023/08/06 10:37:24;;;;;;;27.10;25.93;;;16.10;99.90;;;;;;5040928;28;20200;-66
2023/08/06 10:39:51;;;;;;;11.30;10.90;;;16.10;99.90;;;;;;5050331;28;20203;-66
2023/08/06 10:42:27;;;;;;;10.67;10.30;;;16.00;99.90;;;;;;5053353;28;20330;-66
2023/08/06 10:45:17;;;;;;;18.10;17.47;;;16.00;99.90;;;;;;5053349;28;20309;-67
2023/08/06 10:47:45;;;;;;;23.30;22.40;;;16.00;99.90;;;;;;5053555;28;20271;-65
2023/08/06 10:50:16;;;;;;;11.47;11.07;;;15.90;99.90;;;;;;5064229;28;20276;-66
2023/08/06 10:52:43;;;;;;;23.63;22.73;;;15.90;99.90;;;;;;5065234;28;20592;-67
2023/08/06 10:55:10;;;;;;;24.37;23.43;;;15.90;99.90;;;;;;5055524;28;20318;-63
2023/08/06 10:57:38;;;;;;;12.20;11.80;;;15.90;99.90;;;;;;5054406;28;20200;-67
2023/08/06 11:00:08;;;;;;;20.20;19.40;;;15.90;99.90;;;;;;5055951;28;20212;-67
2023/08/06 11:02:35;;;;;;;23.33;22.43;;;15.90;99.90;;;;;;5064602;28;20224;-66
2023/08/06 11:05:09;;;;;;;29.63;28.33;;;15.90;99.90;;;;;;5062263;28;20235;-65
2023/08/06 11:07:36;;;;;;;13.17;12.73;;;15.80;99.90;;;;;;5058066;28;20212;-65
2023/08/06 11:10:04;;;;;;;17.67;17.00;;;15.80;99.90;;;;;;5048432;28;20295;-66
2023/08/06 11:12:31;;;;;;;14.37;13.87;;;15.80;99.90;;;;;;5052203;28;20235;-65
2023/08/06 11:14:59;;;;;;;13.77;13.27;;;15.80;99.90;;;;;;5053001;28;20288;-64
2023/08/06 11:17:27;;;;;;;14.73;14.23;;;15.70;99.90;;;;;;5053604;28;20670;-66
2023/08/06 11:19:54;;;;;;;13.83;13.33;;;15.80;99.90;;;;;;5052508;28;20204;-65
2023/08/06 11:22:22;;;;;;;16.43;15.83;;;15.80;99.90;;;;;;5049184;28;20319;-66
2023/08/06 11:24:49;;;;;;;14.23;13.73;;;15.80;99.90;;;;;;5052732;28;20692;-64
2023/08/06 11:27:17;;;;;;;13.93;13.43;;;15.80;99.90;;;;;;5053015;28;20214;-66
2023/08/06 11:29:45;;;;;;;15.33;14.83;;;15.80;99.90;;;;;;5052084;28;20214;-67
2023/08/06 11:32:13;;;;;;;15.50;15.00;;;15.90;99.90;;;;;;5056859;28;20250;-67
2023/08/06 11:34:41;;;;;;;14.93;14.43;;;15.80;99.90;;;;;;5065312;28;20200;-65
2023/08/06 11:37:08;;;;;;;16.33;15.73;;;15.80;99.90;;;;;;5057270;28;20211;-67
2023/08/06 11:39:35;;;;;;;32.10;30.80;;;15.90;99.90;;;;;;5051010;28;20616;-64
2023/08/06 11:42:04;;;;;;;16.17;15.60;;;16.00;99.90;;;;;;5052927;28;20234;-67
2023/08/06 11:44:33;;;;;;;17.27;16.67;;;15.90;99.90;;;;;;5049811;28;20258;-64
2023/08/06 11:47:01;;;;;;;17.43;16.83;;;16.00;99.90;;;;;;5033351;28;20228;-64
2023/08/06 11:49:44;;;;;;;26.70;25.70;;;16.00;99.90;;;;;;5038094;28;20216;-65
2023/08/06 11:52:14;;;;;;;21.10;20.40;;;16.20;99.90;;;;;;5053088;28;20681;-64
2023/08/06 11:54:41;;;;;;;20.83;20.13;;;16.10;99.90;;;;;;5062434;28;20212;-66
2023/08/06 11:57:08;;;;;;;19.47;18.77;;;16.10;99.90;;;;;;5055808;28;20208;-64
2023/08/06 11:59:36;;;;;;;21.33;20.63;;;16.20;99.90;;;;;;5050059;28;20212;-65
2023/08/06 12:02:05;;;;;;;19.27;18.63;;;16.30;99.90;;;;;;5050773;28;20788;-65
2023/08/06 12:04:32;;;;;;;73.47;69.73;;;16.30;99.90;;;;;;5051650;28;20185;-65
2023/08/06 12:07:08;;;;;;;31.07;29.93;;;16.40;99.90;;;;;;5050399;28;20293;-67
2023/08/06 12:09:36;;;;;;;37.90;36.37;;;16.60;99.90;;;;;;5050481;28;20211;-66
2023/08/06 12:12:04;;;;;;;29.80;28.60;;;16.40;99.90;;;;;;5038369;28;20237;-65
2023/08/06 12:14:31;;;;;;;28.00;27.00;;;16.50;99.90;;;;;;5045627;28;20462;-65
2023/08/06 12:16:57;;;;;;;23.70;22.90;;;16.50;99.90;;;;;;5050431;28;20581;-65
2023/08/06 12:19:24;;;;;;;131.07;123.30;;;16.50;99.90;;;;;;5050119;28;20294;-65
2023/08/06 12:21:51;;;;;;;30.20;29.07;;;16.50;99.90;;;;;;5043864;28;20224;-64
2023/08/06 12:24:19;;;;;;;36.30;34.80;;;16.50;99.90;;;;;;5032985;28;20204;-65
2023/08/06 12:26:46;;;;;;;23.03;22.23;;;16.50;99.90;;;;;;5054319;28;20270;-65
2023/08/06 12:29:13;;;;;;;22.33;21.57;;;16.60;99.90;;;;;;5052748;28;20214;-64
2023/08/06 12:31:39;;;;;;;25.43;24.53;;;16.60;99.90;;;;;;5052878;28;20960;-65